sensor_id;sensor_type;location;lat;lon;timestamp;P1;durP1;ratioP1;P2;durP2;ratioP2
21354;SDS011;10835;50.148;19.760;2023-02-04T00:00:34;4.15;;;2.08;;
21354;SDS011;10835;50.148;19.760;2023-02-04T00:03:04;8.05;;;3.17;;
21354;SDS011;10835;50.148;19.760;2023-02-04T00:05:33;6.18;;;2.50;;
21354;SDS011;10835;50.148;19.760;2023-02-04T00:08:01;6.15;;;2.72;;
21354;SDS011;10835;50.148;19.760;2023-02-04T00:10:30;7.47;;;2.40;;
21354;SDS011;10835;50.148;19.760;2023-02-04T00:12:58;6.50;;;2.22;;
21354;SDS011;10835;50.148;19.760;2023-02-04T00:15:26;6.82;;;1.95;;
21354;SDS011;10835;50.148;19.760;2023-02-04T00:17:54;4.47;;;2.03;;
21354;SDS011;10835;50.148;19.760;2023-02-04T00:20:23;4.38;;;2.50;;
21354;SDS011;10835;50.148;19.760;2023-02-04T00:22:52;3.17;;;2.05;;
21354;SDS011;10835;50.148;19.760;2023-02-04T00:25:20;7.38;;;2.75;;
21354;SDS011;10835;50.148;19.760;2023-02-04T00:27:48;3.47;;;1.83;;
21354;SDS011;10835;50.148;19.760;2023-02-04T00:30:16;0.90;;;0.90;;
21354;SDS011;10835;50.148;19.760;2023-02-04T00:32:44;1.80;;;1.17;;
21354;SDS011;10835;50.148;19.760;2023-02-04T00:35:12;0.82;;;0.75;;
21354;SDS011;10835;50.148;19.760;2023-02-04T00:37:40;5.07;;;1.80;;
21354;SDS011;10835;50.148;19.760;2023-02-04T00:40:12;1.42;;;0.80;;
21354;SDS011;10835;50.148;19.760;2023-02-04T00:42:40;3.78;;;1.20;;
21354;SDS011;10835;50.148;19.760;2023-02-04T00:45:08;3.80;;;1.40;;
21354;SDS011;10835;50.148;19.760;2023-02-04T00:47:37;5.43;;;1.30;;
21354;SDS011;10835;50.148;19.760;2023-02-04T00:50:05;3.22;;;1.45;;
21354;SDS011;10835;50.148;19.760;2023-02-04T00:52:33;6.97;;;1.50;;
21354;SDS011;10835;50.148;19.760;2023-02-04T00:55:02;5.10;;;2.80;;
21354;SDS011;10835;50.148;19.760;2023-02-04T00:57:31;4.72;;;1.73;;
21354;SDS011;10835;50.148;19.760;2023-02-04T00:59:59;6.72;;;2.90;;
21354;SDS011;10835;50.148;19.760;2023-02-04T01:02:27;4.25;;;2.05;;
21354;SDS011;10835;50.148;19.760;2023-02-04T01:04:56;2.67;;;1.35;;
21354;SDS011;10835;50.148;19.760;2023-02-04T01:07:24;5.13;;;2.70;;
21354;SDS011;10835;50.148;19.760;2023-02-04T01:09:52;9.93;;;1.85;;
21354;SDS011;10835;50.148;19.760;2023-02-04T01:12:20;5.63;;;2.13;;
21354;SDS011;10835;50.148;19.760;2023-02-04T01:14:49;5.15;;;1.95;;
21354;SDS011;10835;50.148;19.760;2023-02-04T01:17:17;5.20;;;1.20;;
21354;SDS011;10835;50.148;19.760;2023-02-04T01:19:46;3.20;;;1.80;;
21354;SDS011;10835;50.148;19.760;2023-02-04T01:22:14;1.90;;;1.40;;
21354;SDS011;10835;50.148;19.760;2023-02-04T01:24:42;4.75;;;1.63;;
21354;SDS011;10835;50.148;19.760;2023-02-04T01:27:29;2.58;;;1.42;;
21354;SDS011;10835;50.148;19.760;2023-02-04T01:29:58;3.63;;;1.20;;
21354;SDS011;10835;50.148;19.760;2023-02-04T01:32:26;6.28;;;1.80;;
21354;SDS011;10835;50.148;19.760;2023-02-04T01:34:54;2.35;;;1.70;;
21354;SDS011;10835;50.148;19.760;2023-02-04T01:37:22;4.88;;;1.73;;
21354;SDS011;10835;50.148;19.760;2023-02-04T01:39:50;3.42;;;1.25;;
21354;SDS011;10835;50.148;19.760;2023-02-04T01:42:18;3.90;;;0.82;;
21354;SDS011;10835;50.148;19.760;2023-02-04T01:44:46;5.60;;;1.17;;
21354;SDS011;10835;50.148;19.760;2023-02-04T01:47:16;1.33;;;1.20;;
21354;SDS011;10835;50.148;19.760;2023-02-04T01:49:44;1.63;;;1.10;;
21354;SDS011;10835;50.148;19.760;2023-02-04T01:52:17;1.23;;;1.13;;
21354;SDS011;10835;50.148;19.760;2023-02-04T01:54:45;0.70;;;0.70;;
21354;SDS011;10835;50.148;19.760;2023-02-04T01:57:15;1.58;;;1.15;;
21354;SDS011;10835;50.148;19.760;2023-02-04T01:59:44;1.15;;;0.77;;
21354;SDS011;10835;50.148;19.760;2023-02-04T02:05:08;3.60;;;0.77;;
21354;SDS011;10835;50.148;19.760;2023-02-04T02:07:37;1.30;;;1.13;;
21354;SDS011;10835;50.148;19.760;2023-02-04T02:10:06;1.15;;;1.05;;
21354;SDS011;10835;50.148;19.760;2023-02-04T02:12:36;1.65;;;1.10;;
21354;SDS011;10835;50.148;19.760;2023-02-04T02:15:08;0.75;;;0.35;;
21354;SDS011;10835;50.148;19.760;2023-02-04T02:17:37;1.00;;;0.50;;
21354;SDS011;10835;50.148;19.760;2023-02-04T02:20:07;0.60;;;0.60;;
21354;SDS011;10835;50.148;19.760;2023-02-04T02:22:38;1.23;;;0.70;;
21354;SDS011;10835;50.148;19.760;2023-02-04T02:25:13;4.00;;;0.90;;
21354;SDS011;10835;50.148;19.760;2023-02-04T02:27:41;0.90;;;0.63;;
21354;SDS011;10835;50.148;19.760;2023-02-04T02:30:11;0.88;;;0.50;;
21354;SDS011;10835;50.148;19.760;2023-02-04T02:32:43;1.00;;;0.90;;
21354;SDS011;10835;50.148;19.760;2023-02-04T02:35:12;0.60;;;0.60;;
21354;SDS011;10835;50.148;19.760;2023-02-04T02:37:40;0.52;;;0.52;;
21354;SDS011;10835;50.148;19.760;2023-02-04T02:40:11;0.40;;;0.40;;
21354;SDS011;10835;50.148;19.760;2023-02-04T02:42:41;0.75;;;0.60;;
21354;SDS011;10835;50.148;19.760;2023-02-04T02:45:11;0.40;;;0.28;;
21354;SDS011;10835;50.148;19.760;2023-02-04T02:47:43;0.65;;;0.65;;
21354;SDS011;10835;50.148;19.760;2023-02-04T02:50:14;0.38;;;0.38;;
21354;SDS011;10835;50.148;19.760;2023-02-04T02:52:45;0.47;;;0.47;;
21354;SDS011;10835;50.148;19.760;2023-02-04T02:55:16;0.63;;;0.50;;
21354;SDS011;10835;50.148;19.760;2023-02-04T02:57:45;0.38;;;0.38;;
21354;SDS011;10835;50.148;19.760;2023-02-04T03:00:16;0.55;;;0.50;;
21354;SDS011;10835;50.148;19.760;2023-02-04T03:02:50;0.40;;;0.40;;
21354;SDS011;10835;50.148;19.760;2023-02-04T03:05:22;1.38;;;0.47;;
21354;SDS011;10835;50.148;19.760;2023-02-04T03:07:52;0.52;;;0.40;;
21354;SDS011;10835;50.148;19.760;2023-02-04T03:10:21;0.40;;;0.40;;
21354;SDS011;10835;50.148;19.760;2023-02-04T03:12:49;1.00;;;1.00;;
21354;SDS011;10835;50.148;19.760;2023-02-04T03:15:17;0.22;;;0.22;;
21354;SDS011;10835;50.148;19.760;2023-02-04T03:17:46;1.90;;;1.20;;
21354;SDS011;10835;50.148;19.760;2023-02-04T03:20:14;0.43;;;0.43;;
21354;SDS011;10835;50.148;19.760;2023-02-04T03:22:43;0.55;;;0.55;;
21354;SDS011;10835;50.148;19.760;2023-02-04T03:25:11;0.38;;;0.38;;
21354;SDS011;10835;50.148;19.760;2023-02-04T03:27:40;0.50;;;0.50;;
21354;SDS011;10835;50.148;19.760;2023-02-04T03:30:09;0.85;;;0.40;;
21354;SDS011;10835;50.148;19.760;2023-02-04T03:32:37;0.40;;;0.40;;
21354;SDS011;10835;50.148;19.760;2023-02-04T03:35:07;0.30;;;0.30;;
21354;SDS011;10835;50.148;19.760;2023-02-04T03:37:35;0.50;;;0.50;;
21354;SDS011;10835;50.148;19.760;2023-02-04T03:40:03;0.80;;;0.47;;
21354;SDS011;10835;50.148;19.760;2023-02-04T03:42:31;0.50;;;0.50;;
21354;SDS011;10835;50.148;19.760;2023-02-04T03:45:01;1.13;;;0.50;;
21354;SDS011;10835;50.148;19.760;2023-02-04T03:47:29;0.40;;;0.40;;
21354;SDS011;10835;50.148;19.760;2023-02-04T03:49:58;0.60;;;0.47;;
21354;SDS011;10835;50.148;19.760;2023-02-04T03:52:26;0.30;;;0.30;;
21354;SDS011;10835;50.148;19.760;2023-02-04T03:54:54;0.30;;;0.30;;
21354;SDS011;10835;50.148;19.760;2023-02-04T03:57:22;0.55;;;0.55;;
21354;SDS011;10835;50.148;19.760;2023-02-04T03:59:50;0.30;;;0.30;;
21354;SDS011;10835;50.148;19.760;2023-02-04T04:02:19;1.17;;;0.75;;
21354;SDS011;10835;50.148;19.760;2023-02-04T04:04:47;0.55;;;0.55;;
21354;SDS011;10835;50.148;19.760;2023-02-04T04:07:15;0.40;;;0.40;;
21354;SDS011;10835;50.148;19.760;2023-02-04T04:09:43;0.60;;;0.60;;
21354;SDS011;10835;50.148;19.760;2023-02-04T04:12:11;0.52;;;0.50;;
21354;SDS011;10835;50.148;19.760;2023-02-04T04:14:39;0.65;;;0.60;;
21354;SDS011;10835;50.148;19.760;2023-02-04T04:17:07;0.85;;;0.85;;
21354;SDS011;10835;50.148;19.760;2023-02-04T04:19:36;0.63;;;0.52;;
21354;SDS011;10835;50.148;19.760;2023-02-04T04:22:04;1.10;;;1.00;;
21354;SDS011;10835;50.148;19.760;2023-02-04T04:24:32;0.55;;;0.50;;
21354;SDS011;10835;50.148;19.760;2023-02-04T04:27:00;2.70;;;1.00;;
21354;SDS011;10835;50.148;19.760;2023-02-04T04:29:28;2.00;;;1.67;;
21354;SDS011;10835;50.148;19.760;2023-02-04T04:31:56;2.95;;;2.13;;
21354;SDS011;10835;50.148;19.760;2023-02-04T04:34:24;3.45;;;2.60;;
21354;SDS011;10835;50.148;19.760;2023-02-04T04:36:53;3.65;;;2.53;;
21354;SDS011;10835;50.148;19.760;2023-02-04T04:39:21;3.83;;;3.03;;
21354;SDS011;10835;50.148;19.760;2023-02-04T04:41:49;5.45;;;2.83;;
21354;SDS011;10835;50.148;19.760;2023-02-04T04:44:17;4.97;;;2.50;;
21354;SDS011;10835;50.148;19.760;2023-02-04T04:46:45;2.58;;;2.08;;
21354;SDS011;10835;50.148;19.760;2023-02-04T04:49:13;3.25;;;2.53;;
21354;SDS011;10835;50.148;19.760;2023-02-04T04:51:42;2.65;;;2.10;;
21354;SDS011;10835;50.148;19.760;2023-02-04T04:54:11;2.33;;;1.65;;
21354;SDS011;10835;50.148;19.760;2023-02-04T04:56:39;2.60;;;1.85;;
21354;SDS011;10835;50.148;19.760;2023-02-04T04:59:07;1.45;;;1.35;;
21354;SDS011;10835;50.148;19.760;2023-02-04T05:01:35;2.95;;;2.17;;
21354;SDS011;10835;50.148;19.760;2023-02-04T05:04:04;2.83;;;2.00;;
21354;SDS011;10835;50.148;19.760;2023-02-04T05:06:32;2.22;;;1.80;;
21354;SDS011;10835;50.148;19.760;2023-02-04T05:09:00;1.65;;;1.38;;
21354;SDS011;10835;50.148;19.760;2023-02-04T05:11:32;1.98;;;1.67;;
21354;SDS011;10835;50.148;19.760;2023-02-04T05:14:00;2.00;;;1.80;;
21354;SDS011;10835;50.148;19.760;2023-02-04T05:16:28;2.95;;;1.83;;
21354;SDS011;10835;50.148;19.760;2023-02-04T05:18:56;2.20;;;1.77;;
21354;SDS011;10835;50.148;19.760;2023-02-04T05:21:24;3.90;;;1.48;;
21354;SDS011;10835;50.148;19.760;2023-02-04T05:23:52;2.28;;;1.50;;
21354;SDS011;10835;50.148;19.760;2023-02-04T05:26:19;2.78;;;1.70;;
21354;SDS011;10835;50.148;19.760;2023-02-04T05:28:57;2.05;;;1.35;;
21354;SDS011;10835;50.148;19.760;2023-02-04T05:31:26;1.80;;;1.38;;
21354;SDS011;10835;50.148;19.760;2023-02-04T05:33:55;2.22;;;1.52;;
21354;SDS011;10835;50.148;19.760;2023-02-04T05:36:23;4.00;;;1.67;;
21354;SDS011;10835;50.148;19.760;2023-02-04T05:38:51;1.13;;;1.02;;
21354;SDS011;10835;50.148;19.760;2023-02-04T05:41:19;5.00;;;1.73;;
21354;SDS011;10835;50.148;19.760;2023-02-04T05:43:47;1.00;;;1.00;;
21354;SDS011;10835;50.148;19.760;2023-02-04T05:46:16;2.60;;;1.52;;
21354;SDS011;10835;50.148;19.760;2023-02-04T05:48:44;2.08;;;1.67;;
21354;SDS011;10835;50.148;19.760;2023-02-04T05:51:12;2.50;;;1.30;;
21354;SDS011;10835;50.148;19.760;2023-02-04T05:53:40;2.97;;;1.48;;
21354;SDS011;10835;50.148;19.760;2023-02-04T05:56:08;3.03;;;1.60;;
21354;SDS011;10835;50.148;19.760;2023-02-04T05:58:36;0.60;;;0.60;;
21354;SDS011;10835;50.148;19.760;2023-02-04T06:01:05;1.83;;;1.30;;
21354;SDS011;10835;50.148;19.760;2023-02-04T06:03:34;1.23;;;0.98;;
21354;SDS011;10835;50.148;19.760;2023-02-04T06:06:02;3.65;;;2.00;;
21354;SDS011;10835;50.148;19.760;2023-02-04T06:08:31;2.45;;;1.80;;
21354;SDS011;10835;50.148;19.760;2023-02-04T06:10:59;1.40;;;1.30;;
21354;SDS011;10835;50.148;19.760;2023-02-04T06:13:27;6.65;;;3.30;;
21354;SDS011;10835;50.148;19.760;2023-02-04T06:15:55;8.60;;;4.32;;
21354;SDS011;10835;50.148;19.760;2023-02-04T06:18:22;1.88;;;1.35;;
21354;SDS011;10835;50.148;19.760;2023-02-04T06:20:52;12.00;;;3.55;;
21354;SDS011;10835;50.148;19.760;2023-02-04T06:23:20;2.60;;;1.70;;
21354;SDS011;10835;50.148;19.760;2023-02-04T06:25:48;2.58;;;1.85;;
21354;SDS011;10835;50.148;19.760;2023-02-04T06:28:15;6.57;;;2.78;;
21354;SDS011;10835;50.148;19.760;2023-02-04T06:30:43;1.35;;;1.25;;
21354;SDS011;10835;50.148;19.760;2023-02-04T06:33:12;2.90;;;2.22;;
21354;SDS011;10835;50.148;19.760;2023-02-04T06:35:39;1.90;;;1.48;;
21354;SDS011;10835;50.148;19.760;2023-02-04T06:38:09;2.35;;;1.50;;
21354;SDS011;10835;50.148;19.760;2023-02-04T06:40:37;1.35;;;1.25;;
21354;SDS011;10835;50.148;19.760;2023-02-04T06:43:05;10.35;;;3.33;;
21354;SDS011;10835;50.148;19.760;2023-02-04T06:45:33;4.50;;;2.72;;
21354;SDS011;10835;50.148;19.760;2023-02-04T06:48:01;1.92;;;1.75;;
21354;SDS011;10835;50.148;19.760;2023-02-04T06:50:29;3.55;;;2.15;;
21354;SDS011;10835;50.148;19.760;2023-02-04T06:52:57;2.60;;;1.75;;
21354;SDS011;10835;50.148;19.760;2023-02-04T06:55:27;14.82;;;6.18;;
21354;SDS011;10835;50.148;19.760;2023-02-04T06:57:55;2.10;;;1.60;;
21354;SDS011;10835;50.148;19.760;2023-02-04T07:00:23;9.20;;;3.53;;
21354;SDS011;10835;50.148;19.760;2023-02-04T07:02:51;7.80;;;4.20;;
21354;SDS011;10835;50.148;19.760;2023-02-04T07:05:19;6.85;;;2.60;;
21354;SDS011;10835;50.148;19.760;2023-02-04T07:07:47;3.65;;;2.63;;
21354;SDS011;10835;50.148;19.760;2023-02-04T07:10:16;7.25;;;2.20;;
21354;SDS011;10835;50.148;19.760;2023-02-04T07:12:47;6.50;;;2.75;;
21354;SDS011;10835;50.148;19.760;2023-02-04T07:15:15;4.63;;;2.15;;
21354;SDS011;10835;50.148;19.760;2023-02-04T07:17:43;7.75;;;3.00;;
21354;SDS011;10835;50.148;19.760;2023-02-04T07:20:11;6.22;;;2.38;;
21354;SDS011;10835;50.148;19.760;2023-02-04T07:22:39;5.90;;;2.60;;
21354;SDS011;10835;50.148;19.760;2023-02-04T07:25:08;7.97;;;2.30;;
21354;SDS011;10835;50.148;19.760;2023-02-04T07:27:36;6.00;;;2.95;;
21354;SDS011;10835;50.148;19.760;2023-02-04T07:30:07;5.22;;;2.22;;
21354;SDS011;10835;50.148;19.760;2023-02-04T07:32:36;2.58;;;1.77;;
21354;SDS011;10835;50.148;19.760;2023-02-04T07:35:04;5.95;;;2.20;;
21354;SDS011;10835;50.148;19.760;2023-02-04T07:37:33;5.35;;;2.50;;
21354;SDS011;10835;50.148;19.760;2023-02-04T07:40:01;2.63;;;2.42;;
21354;SDS011;10835;50.148;19.760;2023-02-04T07:42:29;5.45;;;1.98;;
21354;SDS011;10835;50.148;19.760;2023-02-04T07:45:06;2.40;;;1.40;;
21354;SDS011;10835;50.148;19.760;2023-02-04T07:47:35;2.63;;;1.65;;
21354;SDS011;10835;50.148;19.760;2023-02-04T07:50:03;2.53;;;1.95;;
21354;SDS011;10835;50.148;19.760;2023-02-04T07:52:31;2.75;;;2.17;;
21354;SDS011;10835;50.148;19.760;2023-02-04T07:54:59;3.00;;;1.92;;
21354;SDS011;10835;50.148;19.760;2023-02-04T07:57:28;2.00;;;1.50;;
21354;SDS011;10835;50.148;19.760;2023-02-04T07:59:58;3.83;;;1.98;;
21354;SDS011;10835;50.148;19.760;2023-02-04T08:02:27;4.80;;;1.60;;
21354;SDS011;10835;50.148;19.760;2023-02-04T08:04:55;4.40;;;2.38;;
21354;SDS011;10835;50.148;19.760;2023-02-04T08:07:23;1.60;;;1.50;;
21354;SDS011;10835;50.148;19.760;2023-02-04T08:09:51;4.55;;;2.40;;
21354;SDS011;10835;50.148;19.760;2023-02-04T08:12:19;2.78;;;1.58;;
21354;SDS011;10835;50.148;19.760;2023-02-04T08:14:47;3.65;;;1.48;;
21354;SDS011;10835;50.148;19.760;2023-02-04T08:17:15;3.40;;;1.60;;
21354;SDS011;10835;50.148;19.760;2023-02-04T08:19:45;2.65;;;1.75;;
21354;SDS011;10835;50.148;19.760;2023-02-04T08:22:12;2.60;;;1.75;;
21354;SDS011;10835;50.148;19.760;2023-02-04T08:24:40;3.17;;;1.63;;
21354;SDS011;10835;50.148;19.760;2023-02-04T08:27:08;5.05;;;2.40;;
21354;SDS011;10835;50.148;19.760;2023-02-04T08:29:36;4.57;;;2.33;;
21354;SDS011;10835;50.148;19.760;2023-02-04T08:32:04;3.50;;;2.28;;
21354;SDS011;10835;50.148;19.760;2023-02-04T08:34:35;4.05;;;2.35;;
21354;SDS011;10835;50.148;19.760;2023-02-04T08:37:04;6.07;;;2.42;;
21354;SDS011;10835;50.148;19.760;2023-02-04T08:39:34;2.13;;;1.85;;
21354;SDS011;10835;50.148;19.760;2023-02-04T08:42:02;4.32;;;3.15;;
21354;SDS011;10835;50.148;19.760;2023-02-04T08:44:30;4.85;;;2.70;;
21354;SDS011;10835;50.148;19.760;2023-02-04T08:46:58;5.15;;;2.63;;
21354;SDS011;10835;50.148;19.760;2023-02-04T08:49:26;1.85;;;1.38;;
21354;SDS011;10835;50.148;19.760;2023-02-04T08:51:54;3.53;;;2.60;;
21354;SDS011;10835;50.148;19.760;2023-02-04T08:54:23;3.15;;;2.05;;
21354;SDS011;10835;50.148;19.760;2023-02-04T08:56:51;5.45;;;2.40;;
21354;SDS011;10835;50.148;19.760;2023-02-04T08:59:19;3.28;;;2.05;;
21354;SDS011;10835;50.148;19.760;2023-02-04T09:01:49;5.25;;;2.08;;
21354;SDS011;10835;50.148;19.760;2023-02-04T09:04:20;3.17;;;1.83;;
21354;SDS011;10835;50.148;19.760;2023-02-04T09:06:49;2.95;;;2.00;;
21354;SDS011;10835;50.148;19.760;2023-02-04T09:09:18;2.17;;;1.60;;
21354;SDS011;10835;50.148;19.760;2023-02-04T09:11:52;3.97;;;2.13;;
21354;SDS011;10835;50.148;19.760;2023-02-04T09:14:20;4.25;;;2.55;;
21354;SDS011;10835;50.148;19.760;2023-02-04T09:16:48;3.42;;;1.80;;
21354;SDS011;10835;50.148;19.760;2023-02-04T09:19:16;3.25;;;1.75;;
21354;SDS011;10835;50.148;19.760;2023-02-04T09:21:50;2.85;;;1.60;;
21354;SDS011;10835;50.148;19.760;2023-02-04T09:24:18;2.35;;;1.70;;
21354;SDS011;10835;50.148;19.760;2023-02-04T09:26:50;2.75;;;1.60;;
21354;SDS011;10835;50.148;19.760;2023-02-04T09:29:18;2.85;;;2.10;;
21354;SDS011;10835;50.148;19.760;2023-02-04T09:31:45;1.67;;;1.58;;
21354;SDS011;10835;50.148;19.760;2023-02-04T09:34:14;2.85;;;1.88;;
21354;SDS011;10835;50.148;19.760;2023-02-04T09:36:42;3.17;;;2.30;;
21354;SDS011;10835;50.148;19.760;2023-02-04T09:39:10;7.18;;;3.08;;
21354;SDS011;10835;50.148;19.760;2023-02-04T09:41:38;2.97;;;2.30;;
21354;SDS011;10835;50.148;19.760;2023-02-04T09:44:11;3.28;;;2.05;;
21354;SDS011;10835;50.148;19.760;2023-02-04T09:46:42;5.35;;;2.20;;
21354;SDS011;10835;50.148;19.760;2023-02-04T09:49:14;4.05;;;2.97;;
21354;SDS011;10835;50.148;19.760;2023-02-04T09:51:42;3.58;;;2.33;;
21354;SDS011;10835;50.148;19.760;2023-02-04T09:54:12;3.25;;;2.63;;
21354;SDS011;10835;50.148;19.760;2023-02-04T09:56:42;3.15;;;1.85;;
21354;SDS011;10835;50.148;19.760;2023-02-04T09:59:12;4.07;;;3.20;;
21354;SDS011;10835;50.148;19.760;2023-02-04T10:01:41;6.28;;;3.15;;
21354;SDS011;10835;50.148;19.760;2023-02-04T10:04:10;7.45;;;3.70;;
21354;SDS011;10835;50.148;19.760;2023-02-04T10:06:40;5.22;;;3.83;;
21354;SDS011;10835;50.148;19.760;2023-02-04T10:09:10;5.38;;;3.28;;
21354;SDS011;10835;50.148;19.760;2023-02-04T10:11:39;4.95;;;2.65;;
21354;SDS011;10835;50.148;19.760;2023-02-04T10:14:11;4.90;;;2.40;;
21354;SDS011;10835;50.148;19.760;2023-02-04T10:16:44;6.75;;;2.65;;
21354;SDS011;10835;50.148;19.760;2023-02-04T10:19:17;3.35;;;2.42;;
21354;SDS011;10835;50.148;19.760;2023-02-04T10:21:45;5.15;;;2.72;;
21354;SDS011;10835;50.148;19.760;2023-02-04T10:24:14;9.77;;;1.85;;
21354;SDS011;10835;50.148;19.760;2023-02-04T10:26:44;3.53;;;2.15;;
21354;SDS011;10835;50.148;19.760;2023-02-04T10:29:15;2.72;;;1.95;;
21354;SDS011;10835;50.148;19.760;2023-02-04T10:31:46;4.35;;;2.47;;
21354;SDS011;10835;50.148;19.760;2023-02-04T10:34:16;3.20;;;1.83;;
21354;SDS011;10835;50.148;19.760;2023-02-04T10:36:46;3.20;;;2.10;;
21354;SDS011;10835;50.148;19.760;2023-02-04T10:39:18;12.98;;;4.75;;
21354;SDS011;10835;50.148;19.760;2023-02-04T10:41:48;6.45;;;3.92;;
21354;SDS011;10835;50.148;19.760;2023-02-04T10:44:19;3.17;;;1.90;;
21354;SDS011;10835;50.148;19.760;2023-02-04T10:46:57;3.97;;;2.38;;
21354;SDS011;10835;50.148;19.760;2023-02-04T10:49:25;1.15;;;1.05;;
21354;SDS011;10835;50.148;19.760;2023-02-04T10:51:56;3.50;;;1.63;;
21354;SDS011;10835;50.148;19.760;2023-02-04T10:54:24;3.40;;;1.80;;
21354;SDS011;10835;50.148;19.760;2023-02-04T10:57:03;3.30;;;2.17;;
21354;SDS011;10835;50.148;19.760;2023-02-04T10:59:44;4.22;;;2.15;;
21354;SDS011;10835;50.148;19.760;2023-02-04T11:02:30;2.75;;;1.52;;
21354;SDS011;10835;50.148;19.760;2023-02-04T11:05:03;1.10;;;1.00;;
21354;SDS011;10835;50.148;19.760;2023-02-04T11:07:38;3.65;;;1.90;;
21354;SDS011;10835;50.148;19.760;2023-02-04T11:10:10;2.88;;;1.55;;
21354;SDS011;10835;50.148;19.760;2023-02-04T11:12:40;2.13;;;1.75;;
21354;SDS011;10835;50.148;19.760;2023-02-04T11:18:06;3.60;;;1.92;;
21354;SDS011;10835;50.148;19.760;2023-02-04T11:20:38;5.07;;;2.95;;
21354;SDS011;10835;50.148;19.760;2023-02-04T11:23:13;4.57;;;2.00;;
21354;SDS011;10835;50.148;19.760;2023-02-04T11:26:02;4.03;;;1.40;;
21354;SDS011;10835;50.148;19.760;2023-02-04T11:28:46;4.93;;;2.25;;
21354;SDS011;10835;50.148;19.760;2023-02-04T11:31:40;3.63;;;1.77;;
21354;SDS011;10835;50.148;19.760;2023-02-04T11:34:22;3.90;;;1.45;;
21354;SDS011;10835;50.148;19.760;2023-02-04T11:37:04;3.25;;;1.60;;
21354;SDS011;10835;50.148;19.760;2023-02-04T11:39:40;4.78;;;1.63;;
21354;SDS011;10835;50.148;19.760;2023-02-04T11:42:14;4.60;;;2.30;;
21354;SDS011;10835;50.148;19.760;2023-02-04T11:44:48;3.00;;;1.33;;
21354;SDS011;10835;50.148;19.760;2023-02-04T11:47:23;3.63;;;1.85;;
21354;SDS011;10835;50.148;19.760;2023-02-04T11:49:53;2.80;;;1.98;;
21354;SDS011;10835;50.148;19.760;2023-02-04T11:52:23;3.17;;;1.90;;
21354;SDS011;10835;50.148;19.760;2023-02-04T11:54:52;2.78;;;1.60;;
21354;SDS011;10835;50.148;19.760;2023-02-04T11:57:21;2.85;;;1.98;;
21354;SDS011;10835;50.148;19.760;2023-02-04T11:59:49;2.80;;;2.00;;
21354;SDS011;10835;50.148;19.760;2023-02-04T12:02:17;3.85;;;1.45;;
21354;SDS011;10835;50.148;19.760;2023-02-04T12:04:52;3.53;;;1.30;;
21354;SDS011;10835;50.148;19.760;2023-02-04T12:07:26;3.45;;;1.15;;
21354;SDS011;10835;50.148;19.760;2023-02-04T12:09:55;3.47;;;1.13;;
21354;SDS011;10835;50.148;19.760;2023-02-04T12:12:25;3.58;;;1.30;;
21354;SDS011;10835;50.148;19.760;2023-02-04T12:14:56;1.50;;;1.10;;
21354;SDS011;10835;50.148;19.760;2023-02-04T12:17:40;1.42;;;1.08;;
21354;SDS011;10835;50.148;19.760;2023-02-04T12:20:12;1.35;;;1.20;;
21354;SDS011;10835;50.148;19.760;2023-02-04T12:22:41;2.35;;;1.58;;
21354;SDS011;10835;50.148;19.760;2023-02-04T12:25:08;5.32;;;1.85;;
21354;SDS011;10835;50.148;19.760;2023-02-04T12:27:42;1.80;;;1.70;;
21354;SDS011;10835;50.148;19.760;2023-02-04T12:30:10;2.92;;;1.58;;
21354;SDS011;10835;50.148;19.760;2023-02-04T12:32:38;2.15;;;1.02;;
21354;SDS011;10835;50.148;19.760;2023-02-04T12:35:07;2.55;;;1.50;;
21354;SDS011;10835;50.148;19.760;2023-02-04T12:37:36;2.38;;;1.38;;
21354;SDS011;10835;50.148;19.760;2023-02-04T12:40:04;2.03;;;1.23;;
21354;SDS011;10835;50.148;19.760;2023-02-04T12:42:33;4.18;;;2.72;;
21354;SDS011;10835;50.148;19.760;2023-02-04T12:45:01;8.35;;;2.78;;
21354;SDS011;10835;50.148;19.760;2023-02-04T12:47:29;3.55;;;2.08;;
21354;SDS011;10835;50.148;19.760;2023-02-04T12:49:57;3.20;;;1.77;;
21354;SDS011;10835;50.148;19.760;2023-02-04T12:52:26;1.75;;;1.52;;
21354;SDS011;10835;50.148;19.760;2023-02-04T12:54:55;3.83;;;1.75;;
21354;SDS011;10835;50.148;19.760;2023-02-04T12:57:24;1.20;;;0.93;;
21354;SDS011;10835;50.148;19.760;2023-02-04T12:59:52;1.35;;;1.20;;
21354;SDS011;10835;50.148;19.760;2023-02-04T13:02:23;2.60;;;1.17;;
21354;SDS011;10835;50.148;19.760;2023-02-04T13:04:51;2.50;;;1.50;;
21354;SDS011;10835;50.148;19.760;2023-02-04T13:07:18;2.67;;;1.85;;
21354;SDS011;10835;50.148;19.760;2023-02-04T13:09:47;4.53;;;1.65;;
21354;SDS011;10835;50.148;19.760;2023-02-04T13:12:16;1.60;;;1.38;;
21354;SDS011;10835;50.148;19.760;2023-02-04T13:14:44;2.13;;;1.35;;
21354;SDS011;10835;50.148;19.760;2023-02-04T13:17:15;4.75;;;1.52;;
21354;SDS011;10835;50.148;19.760;2023-02-04T13:19:43;0.47;;;0.47;;
21354;SDS011;10835;50.148;19.760;2023-02-04T13:22:11;2.15;;;1.50;;
21354;SDS011;10835;50.148;19.760;2023-02-04T13:24:39;4.32;;;1.60;;
21354;SDS011;10835;50.148;19.760;2023-02-04T13:27:10;4.72;;;0.90;;
21354;SDS011;10835;50.148;19.760;2023-02-04T13:29:40;3.38;;;1.40;;
21354;SDS011;10835;50.148;19.760;2023-02-04T13:32:08;3.60;;;1.40;;
21354;SDS011;10835;50.148;19.760;2023-02-04T13:34:38;1.25;;;1.15;;
21354;SDS011;10835;50.148;19.760;2023-02-04T13:37:06;1.02;;;0.75;;
21354;SDS011;10835;50.148;19.760;2023-02-04T13:39:34;1.70;;;1.60;;
21354;SDS011;10835;50.148;19.760;2023-02-04T13:42:02;3.90;;;2.40;;
21354;SDS011;10835;50.148;19.760;2023-02-04T13:44:31;6.43;;;2.35;;
21354;SDS011;10835;50.148;19.760;2023-02-04T13:47:00;8.60;;;2.53;;
21354;SDS011;10835;50.148;19.760;2023-02-04T13:49:28;4.57;;;1.98;;
21354;SDS011;10835;50.148;19.760;2023-02-04T13:51:56;1.60;;;1.33;;
21354;SDS011;10835;50.148;19.760;2023-02-04T13:54:24;6.90;;;1.02;;
21354;SDS011;10835;50.148;19.760;2023-02-04T13:56:52;1.48;;;0.90;;
21354;SDS011;10835;50.148;19.760;2023-02-04T13:59:20;4.43;;;1.95;;
21354;SDS011;10835;50.148;19.760;2023-02-04T14:01:48;2.08;;;1.05;;
21354;SDS011;10835;50.148;19.760;2023-02-04T14:04:19;1.15;;;1.02;;
21354;SDS011;10835;50.148;19.760;2023-02-04T14:06:47;4.90;;;2.15;;
21354;SDS011;10835;50.148;19.760;2023-02-04T14:09:18;1.27;;;1.10;;
21354;SDS011;10835;50.148;19.760;2023-02-04T14:11:46;4.57;;;1.73;;
21354;SDS011;10835;50.148;19.760;2023-02-04T14:14:14;3.30;;;1.70;;
21354;SDS011;10835;50.148;19.760;2023-02-04T14:16:42;2.53;;;1.63;;
21354;SDS011;10835;50.148;19.760;2023-02-04T14:19:10;2.25;;;1.13;;
21354;SDS011;10835;50.148;19.760;2023-02-04T14:21:40;1.90;;;1.10;;
21354;SDS011;10835;50.148;19.760;2023-02-04T14:24:08;4.75;;;2.20;;
21354;SDS011;10835;50.148;19.760;2023-02-04T14:26:36;4.32;;;1.67;;
21354;SDS011;10835;50.148;19.760;2023-02-04T14:29:04;5.10;;;1.27;;
21354;SDS011;10835;50.148;19.760;2023-02-04T14:31:32;3.45;;;1.75;;
21354;SDS011;10835;50.148;19.760;2023-02-04T14:34:01;4.57;;;1.70;;
21354;SDS011;10835;50.148;19.760;2023-02-04T14:36:29;4.13;;;1.85;;
21354;SDS011;10835;50.148;19.760;2023-02-04T14:38:59;2.47;;;1.70;;
21354;SDS011;10835;50.148;19.760;2023-02-04T14:41:27;4.47;;;1.63;;
21354;SDS011;10835;50.148;19.760;2023-02-04T14:43:56;1.30;;;1.20;;
21354;SDS011;10835;50.148;19.760;2023-02-04T14:46:24;2.92;;;1.23;;
21354;SDS011;10835;50.148;19.760;2023-02-04T14:48:52;3.95;;;1.50;;
21354;SDS011;10835;50.148;19.760;2023-02-04T14:51:20;2.10;;;1.17;;